Time;durP1;ratioP1;P1;durP2;ratioP2;P2;SDS_P1;SDS_P2;PMS_P1;PMS_P2;Temp;Humidity;BMP_temperature;BMP_pressure;BME280_temperature;BME280_humidity;BME280_pressure;Samples;Min_cycle;Max_cycle;Signal;HPM_P1;HPM_P2
2022/04/18 00:02:05;;;;;;;5.07;3.75;;;;;;;10.02;46.92;101761.44;3563050;40;20045;-63
2022/04/18 00:04:31;;;;;;;5.82;3.95;;;;;;;9.94;47.79;101751.06;3563573;40;20154;-63
2022/04/18 00:06:57;;;;;;;7.35;4.10;;;;;;;9.86;47.31;101748.69;3552889;40;20675;-63
2022/04/18 00:09:22;;;;;;;5.28;3.55;;;;;;;9.65;48.44;101718.31;3564064;40;20053;-63
2022/04/18 00:11:48;;;;;;;5.25;4.00;;;;;;;9.71;48.78;101744.03;3561551;40;20121;-62
2022/04/18 00:14:13;;;;;;;5.68;4.18;;;;;;;9.69;49.10;101751.25;3555160;40;20051;-63
2022/04/18 00:16:39;;;;;;;6.45;4.00;;;;;;;9.64;48.04;101742.50;3563782;40;20072;-62
2022/04/18 00:19:05;;;;;;;4.68;3.42;;;;;;;9.62;47.92;101741.72;3565631;40;20059;-63
2022/04/18 00:21:31;;;;;;;4.78;3.95;;;;;;;9.59;47.99;101756.16;3564352;40;20315;-63
2022/04/18 00:23:57;;;;;;;9.20;3.80;;;;;;;9.51;48.19;101743.06;3559510;40;20057;-63
2022/04/18 00:26:22;;;;;;;5.88;4.20;;;;;;;9.47;47.66;101736.06;3560036;40;20067;-63
2022/04/18 00:28:49;;;;;;;4.47;3.35;;;;;;;9.46;47.87;101750.44;3555480;40;20064;-63
2022/04/18 00:31:14;;;;;;;3.75;3.33;;;;;;;9.41;48.17;101740.81;3564026;40;20060;-63
2022/04/18 00:33:40;;;;;;;5.75;3.45;;;;;;;9.39;48.67;101748.97;3564725;40;20049;-62
2022/04/18 00:36:05;;;;;;;3.67;3.35;;;;;;;9.35;48.03;101757.19;3563943;40;20060;-63
2022/04/18 00:38:31;;;;;;;5.05;3.72;;;;;;;9.27;48.60;101744.09;3558865;40;20056;-62
2022/04/18 00:40:57;;;;;;;3.80;3.30;;;;;;;9.25;48.79;101751.31;3564799;40;20098;-63
2022/04/18 00:43:47;;;;;;;5.65;3.60;;;;;;;9.17;49.31;101753.47;3558331;40;20087;-63
2022/04/18 00:46:17;;;;;;;5.18;3.60;;;;;;;9.10;49.87;101752.81;3557869;40;20269;-63
2022/04/18 00:48:44;;;;;;;3.83;3.42;;;;;;;9.06;49.86;101745.84;3562853;40;20088;-63
2022/04/18 00:51:14;;;;;;;4.78;3.67;;;;;;;9.01;49.81;101738.00;3564322;40;20434;-63
2022/04/18 00:53:43;;;;;;;4.82;3.53;;;;;;;9.04;49.35;101748.59;3562145;40;20343;-62
2022/04/18 00:56:16;;;;;;;3.80;3.40;;;;;;;9.00;49.38;101741.59;3564683;40;20056;-63
2022/04/18 00:58:42;;;;;;;5.43;3.30;;;;;;;8.99;49.07;101741.66;3556765;40;20368;-62
2022/04/18 01:01:09;;;;;;;3.83;3.40;;;;;;;8.98;49.21;101742.63;3558294;40;20615;-62
2022/04/18 01:03:35;;;;;;;4.55;3.08;;;;;;;8.89;49.98;101727.75;3565224;40;20067;-63
2022/04/18 01:06:03;;;;;;;5.20;3.30;;;;;;;8.97;50.22;101733.66;3563620;40;20056;-63
2022/04/18 01:08:36;;;;;;;3.90;3.20;;;;;;;8.94;50.08;101731.13;3564170;40;20044;-62
2022/04/18 01:11:08;;;;;;;5.18;3.33;;;;;;;8.86;49.90;101718.97;3557495;40;20047;-63
2022/04/18 01:13:47;;;;;;;5.35;3.35;;;;;;;8.88;50.07;101730.50;3558436;40;20067;-62
2022/04/18 01:16:13;;;;;;;6.22;3.53;;;;;;;8.83;49.67;101731.56;3555961;40;20097;-63
2022/04/18 01:18:39;;;;;;;4.38;3.50;;;;;;;8.78;49.95;101725.50;3564051;40;20334;-63
2022/04/18 01:21:09;;;;;;;5.70;3.40;;;;;;;8.77;50.75;101733.63;3559204;40;20169;-63
2022/04/18 01:23:36;;;;;;;4.60;3.40;;;;;;;8.76;51.16;101729.19;3555920;40;20060;-63
2022/04/18 01:29:01;;;;;;;5.32;3.25;;;;;;;8.72;50.74;101727.53;3555744;40;20176;-62
2022/04/18 01:31:36;;;;;;;5.55;3.53;;;;;;;8.69;50.65;101731.25;3554089;40;20060;-62
2022/04/18 01:34:05;;;;;;;3.97;3.40;;;;;;;8.68;51.78;101728.63;3562226;40;20711;-63
2022/04/18 01:36:31;;;;;;;4.18;3.70;;;;;;;8.66;51.86;101728.69;3564466;40;20063;-62
2022/04/18 01:38:57;;;;;;;4.75;3.83;;;;;;;8.55;52.40;101718.38;3563636;40;20068;-63
2022/04/18 01:41:23;;;;;;;5.03;3.60;;;;;;;8.59;52.98;101733.41;3561426;40;20256;-63
2022/04/18 01:43:50;;;;;;;5.22;3.60;;;;;;;8.56;53.51;101729.97;3562832;40;20068;-63
2022/04/18 01:46:16;;;;;;;5.03;3.50;;;;;;;8.55;53.56;101731.78;3561197;40;20057;-63
2022/04/18 01:48:42;;;;;;;4.85;3.60;;;;;;;8.50;53.69;101736.44;3551279;40;20135;-63
2022/04/18 01:51:09;;;;;;;5.40;3.92;;;;;;;8.47;53.57;101730.31;3565751;40;20114;-63
2022/04/18 01:53:35;;;;;;;3.78;3.40;;;;;;;8.43;53.37;101732.25;3562736;40;20218;-62
2022/04/18 01:56:01;;;;;;;4.85;3.53;;;;;;;8.34;53.22;101725.41;3563640;40;20718;-62
2022/04/18 01:58:27;;;;;;;5.22;3.55;;;;;;;7.98;53.22;101673.22;3560168;40;20084;-63
2022/04/18 02:00:53;;;;;;;5.13;3.67;;;;;;;8.22;53.76;101719.66;3556881;40;20059;-63
2022/04/18 02:03:18;;;;;;;4.63;3.42;;;;;;;8.14;53.97;101720.78;3558517;40;20087;-63
2022/04/18 02:05:45;;;;;;;6.45;3.80;;;;;;;7.76;53.73;101646.38;3564871;40;20110;-63
2022/04/18 02:08:11;;;;;;;4.90;3.45;;;;;;;8.11;53.18;101709.31;3567431;40;20435;-62
2022/04/18 02:10:37;;;;;;;4.13;3.65;;;;;;;8.10;53.24;101712.94;3565444;40;20124;-62
2022/04/18 02:13:03;;;;;;;5.22;3.70;;;;;;;8.10;53.70;101720.97;3558281;40;20699;-63
2022/04/18 02:15:29;;;;;;;6.20;3.85;;;;;;;8.08;54.21;101718.34;3565089;40;20048;-63
2022/04/18 02:17:55;;;;;;;6.55;3.50;;;;;;;8.07;54.38;101710.38;3550300;40;20075;-64
2022/04/18 02:20:21;;;;;;;8.00;3.90;;;;;;;8.03;55.10;101708.75;3565665;40;20053;-64
2022/04/18 02:22:47;;;;;;;3.63;3.28;;;;;;;8.03;55.73;101711.44;3562658;40;20049;-62
2022/04/18 02:25:12;;;;;;;4.65;3.88;;;;;;;8.01;57.16;101708.78;3567615;40;20075;-63
2022/04/18 02:27:38;;;;;;;5.82;4.00;;;;;;;7.95;57.41;101694.75;3561838;40;20056;-62
2022/04/18 02:30:05;;;;;;;5.30;3.85;;;;;;;7.96;57.39;101702.75;3560776;40;20694;-63
2022/04/18 02:32:50;;;;;;;3.78;3.45;;;;;;;7.95;57.55;101711.69;3550354;40;20053;-64
2022/04/18 02:35:22;;;;;;;4.97;3.42;;;;;;;7.90;56.20;101698.50;3559534;40;20368;-64
2022/04/18 02:37:49;;;;;;;3.92;3.38;;;;;;;7.87;54.75;101703.09;3564278;40;20417;-64
2022/04/18 02:40:15;;;;;;;4.55;3.35;;;;;;;7.82;54.72;101695.22;3565572;40;20427;-64
2022/04/18 02:42:44;;;;;;;5.47;3.15;;;;;;;7.77;53.67;101698.97;3563399;40;20063;-64
2022/04/18 02:45:20;;;;;;;5.20;3.60;;;;;;;7.76;53.71;101700.78;3561520;40;20088;-64
2022/04/18 02:47:47;;;;;;;4.38;3.08;;;;;;;7.58;53.67;101667.56;3556556;40;20063;-64
2022/04/18 02:50:13;;;;;;;6.53;3.50;;;;;;;7.66;54.11;101691.34;3557158;40;20469;-64
2022/04/18 02:52:39;;;;;;;4.15;3.20;;;;;;;7.63;55.16;101689.66;3563735;40;20102;-64
2022/04/18 02:55:07;;;;;;;7.47;3.50;;;;;;;7.61;55.29;101691.53;3565075;40;20058;-62
2022/04/18 02:57:33;;;;;;;4.68;3.38;;;;;;;7.49;55.65;101667.88;3564152;40;20103;-62
2022/04/18 02:59:59;;;;;;;5.20;3.15;;;;;;;7.46;56.16;101659.09;3560033;40;20196;-62
2022/04/18 03:02:24;;;;;;;4.07;3.42;;;;;;;7.58;56.63;101680.94;3557921;40;20081;-62
2022/04/18 03:04:50;;;;;;;5.57;3.50;;;;;;;7.59;56.78;101671.09;3552559;40;20134;-64
2022/04/18 03:07:15;;;;;;;6.65;3.28;;;;;;;7.59;56.57;101669.28;3567111;40;20052;-62
2022/04/18 03:09:41;;;;;;;3.75;3.30;;;;;;;7.36;55.53;101630.00;3566047;40;20065;-62
2022/04/18 03:12:07;;;;;;;5.25;3.47;;;;;;;7.57;55.63;101662.25;3567583;40;20053;-63
2022/04/18 03:14:33;;;;;;;5.75;3.70;;;;;;;7.16;55.43;101600.38;3563500;40;20052;-63
2022/04/18 03:16:59;;;;;;;6.35;3.80;;;;;;;7.53;55.16;101665.97;3561110;40;20185;-64
2022/04/18 03:19:24;;;;;;;7.35;4.72;;;;;;;7.49;55.46;101665.19;3565141;40;20059;-63
2022/04/18 03:21:51;;;;;;;6.78;4.30;;;;;;;7.47;56.27;101667.03;3553345;40;20208;-63
2022/04/18 03:24:17;;;;;;;5.80;4.55;;;;;;;7.43;56.45;101665.41;3564622;40;20126;-63
2022/04/18 03:26:43;;;;;;;8.07;5.13;;;;;;;7.41;56.80;101657.44;3562958;40;20064;-62
2022/04/18 03:29:08;;;;;;;6.65;4.78;;;;;;;7.41;57.62;101662.78;3563262;40;20053;-63
2022/04/18 03:31:34;;;;;;;6.03;4.32;;;;;;;7.38;57.22;101662.88;3556565;40;20065;-62
2022/04/18 03:33:59;;;;;;;8.02;4.75;;;;;;;7.12;57.33;101629.03;3562969;40;21832;-63
2022/04/18 03:41:53;;;;;;;48.97;26.92;;;;;;;7.22;57.25;101662.53;3560205;40;20056;-63
2022/04/18 03:44:19;;;;;;;28.52;15.30;;;;;;;7.22;57.05;101672.38;3564215;40;20049;-63
2022/04/18 03:46:44;;;;;;;24.75;12.95;;;;;;;7.18;56.88;101676.09;3603884;22;20131;-64
2022/04/18 03:49:10;;;;;;;24.15;13.27;;;;;;;7.10;56.90;101662.97;3578897;40;20068;-64
2022/04/18 03:51:36;;;;;;;23.95;12.32;;;;;;;7.06;56.59;101664.00;3574406;39;20051;-66
2022/04/18 03:54:02;;;;;;;22.73;11.98;;;;;;;7.10;57.64;101673.66;3580763;40;20056;-66
2022/04/18 03:56:28;;;;;;;23.08;13.35;;;;;;;7.02;57.14;101654.34;3583470;40;20048;-65
2022/04/18 03:58:53;;;;;;;26.90;14.93;;;;;;;7.03;56.65;101664.09;3583604;40;20047;-65
2022/04/18 04:01:19;;;;;;;24.65;14.60;;;;;;;6.96;57.48;101670.59;3583478;40;20607;-64
2022/04/18 04:03:45;;;;;;;25.15;14.20;;;;;;;6.93;58.03;101665.34;3571986;39;20063;-66
2022/04/18 04:06:10;;;;;;;25.42;14.75;;;;;;;6.95;57.96;101674.19;3580621;40;20075;-65
2022/04/18 04:08:36;;;;;;;23.77;14.88;;;;;;;6.88;57.78;101657.50;3573502;39;20121;-65
2022/04/18 04:11:02;;;;;;;23.80;14.40;;;;;;;6.95;58.27;101664.38;3573873;40;20314;-66
2022/04/18 04:13:27;;;;;;;27.00;14.40;;;;;;;6.95;58.82;101669.72;3582034;39;20075;-65
2022/04/18 04:15:53;;;;;;;26.80;16.15;;;;;;;6.85;58.90;101657.59;3582740;39;20063;-66
2022/04/18 04:18:18;;;;;;;30.20;16.75;;;;;;;6.84;58.64;101660.28;3578295;39;20044;-65
2022/04/18 04:20:44;;;;;;;33.28;17.88;;;;;;;6.74;57.94;101660.59;3579389;40;20056;-65
2022/04/18 04:23:10;;;;;;;31.88;17.60;;;;;;;6.66;57.87;101651.06;3567064;39;20387;-65
2022/04/18 04:25:35;;;;;;;31.58;17.42;;;;;;;6.68;57.55;101663.47;3584364;40;20592;-65
2022/04/18 04:28:01;;;;;;;28.27;17.15;;;;;;;6.64;57.03;101652.94;3585237;40;20067;-66
2022/04/18 04:30:26;;;;;;;30.45;18.23;;;;;;;6.62;58.62;101660.97;3583884;40;20047;-66
2022/04/18 04:32:52;;;;;;;27.48;17.30;;;;;;;6.57;57.93;101652.25;3585220;39;20058;-65
2022/04/18 04:35:18;;;;;;;30.77;17.73;;;;;;;6.59;58.61;101655.75;3580833;39;20071;-65
2022/04/18 04:37:43;;;;;;;29.58;18.70;;;;;;;6.65;58.35;101666.22;3586380;40;20050;-65
2022/04/18 04:40:11;;;;;;;28.95;16.90;;;;;;;6.69;58.24;101665.22;3576752;39;20143;-65
2022/04/18 04:42:38;;;;;;;29.67;16.70;;;;;;;6.69;58.02;101672.34;3586695;40;20095;-65
2022/04/18 04:45:04;;;;;;;28.70;17.80;;;;;;;6.61;58.11;101653.03;3578833;39;20113;-66
2022/04/18 04:47:30;;;;;;;27.50;16.63;;;;;;;6.64;57.83;101669.84;3585951;40;20425;-65
2022/04/18 04:49:56;;;;;;;25.13;16.75;;;;;;;6.52;57.54;101664.88;3579764;39;20058;-66
2022/04/18 04:52:21;;;;;;;27.15;16.73;;;;;;;6.36;58.18;101642.25;3582715;40;20058;-65
2022/04/18 04:54:47;;;;;;;27.83;16.20;;;;;;;6.51;58.63;101674.69;3571770;39;20044;-66
2022/04/18 04:57:12;;;;;;;22.23;14.15;;;;;;;6.50;59.18;101674.72;3580421;40;20048;-64
2022/04/18 04:59:38;;;;;;;20.63;13.20;;;;;;;6.46;59.62;101681.09;3582197;40;20325;-64
2022/04/18 05:02:05;;;;;;;20.02;12.98;;;;;;;6.31;59.62;101652.19;3583173;40;20068;-65
2022/04/18 05:04:31;;;;;;;20.27;12.27;;;;;;;6.45;59.69;101668.66;3568974;40;20063;-64
2022/04/18 05:06:56;;;;;;;21.10;13.70;;;;;;;6.49;60.54;101670.31;3574853;39;20511;-65
2022/04/18 05:09:22;;;;;;;15.98;11.57;;;;;;;6.52;59.32;101675.56;3571655;40;20074;-64
2022/04/18 05:11:48;;;;;;;14.48;9.90;;;;;;;6.59;59.31;101669.09;3583838;40;20451;-64
2022/04/18 05:14:14;;;;;;;14.35;9.18;;;;;;;6.41;59.17;101641.19;3584782;40;20058;-63
2022/04/18 05:16:41;;;;;;;15.63;9.50;;;;;;;6.64;59.57;101669.84;3576114;40;20040;-64
2022/04/18 05:19:06;;;;;;;11.27;8.20;;;;;;;6.63;59.92;101668.09;3582888;39;20052;-65
2022/04/18 05:21:32;;;;;;;13.70;8.50;;;;;;;6.74;60.21;101665.06;3578749;39;20129;-65
2022/04/18 05:23:58;;;;;;;10.60;7.82;;;;;;;6.76;60.15;101647.19;3558576;39;20062;-65
2022/04/18 05:26:23;;;;;;;12.85;7.80;;;;;;;7.08;59.09;101670.19;3576100;39;21657;-64
2022/04/18 05:28:49;;;;;;;10.07;6.70;;;;;;;7.30;57.12;101666.78;3584153;40;20069;-65
2022/04/18 05:31:19;;;;;;;10.77;6.70;;;;;;;7.48;57.15;101673.25;3586112;40;20060;-64
2022/04/18 05:33:45;;;;;;;7.88;5.60;;;;;;;7.61;54.84;101675.47;3588111;40;20049;-64
2022/04/18 05:36:11;;;;;;;7.50;4.30;;;;;;;7.74;52.12;101670.53;3578262;39;20095;-64
2022/04/18 05:38:36;;;;;;;6.30;3.95;;;;;;;7.97;50.58;101661.66;3586202;40;20335;-65
2022/04/18 05:41:02;;;;;;;5.30;3.85;;;;;;;8.05;50.38;101640.78;3568042;39;20063;-64
2022/04/18 05:43:29;;;;;;;5.15;3.83;;;;;;;8.32;49.29;101656.75;3582327;40;20051;-64
2022/04/18 05:45:54;;;;;;;5.53;3.30;;;;;;;8.54;50.16;101665.72;3580088;39;20064;-66
2022/04/18 05:48:20;;;;;;;5.95;3.60;;;;;;;8.73;50.42;101678.38;3585579;40;20055;-66
2022/04/18 05:50:47;;;;;;;4.85;3.28;;;;;;;8.79;49.32;101673.66;3581252;39;20056;-68
2022/04/18 05:53:15;;;;;;;3.78;3.30;;;;;;;8.96;48.44;101680.13;3578202;39;20058;-63
2022/04/18 05:55:42;;;;;;;4.22;3.10;;;;;;;9.00;49.11;101674.56;3575536;39;20256;-64
2022/04/18 05:58:07;;;;;;;6.57;3.60;;;;;;;9.15;49.40;101685.59;3571562;39;20035;-64
2022/04/18 06:00:34;;;;;;;4.65;3.40;;;;;;;9.19;49.10;101685.38;3581056;39;20052;-64
2022/04/18 06:03:01;;;;;;;4.18;3.45;;;;;;;9.20;49.52;101689.81;3579929;39;20056;-65
2022/04/18 06:05:27;;;;;;;4.72;3.45;;;;;;;9.27;47.77;101685.94;3583985;39;20129;-65
2022/04/18 06:07:54;;;;;;;5.13;3.20;;;;;;;9.36;46.40;101678.44;3575960;39;20151;-66
2022/04/18 06:10:20;;;;;;;4.00;2.97;;;;;;;9.53;45.24;101686.63;3581853;40;20129;-65
2022/04/18 06:12:45;;;;;;;3.83;2.80;;;;;;;9.57;45.55;101680.19;3569584;39;20108;-65
2022/04/18 06:15:11;;;;;;;4.57;3.10;;;;;;;9.74;46.56;101690.19;3581178;40;20062;-64
2022/04/18 06:17:36;;;;;;;4.57;3.40;;;;;;;9.82;46.01;101688.00;3582180;39;20052;-65
2022/04/18 06:20:03;;;;;;;3.15;2.80;;;;;;;9.97;45.97;101691.84;3581723;39;20060;-65
2022/04/18 06:22:29;;;;;;;4.57;3.20;;;;;;;10.00;44.58;101671.06;3570721;40;20040;-65
2022/04/18 06:24:54;;;;;;;5.32;3.20;;;;;;;10.12;43.90;101674.16;3580829;39;20056;-65
2022/04/18 06:27:20;;;;;;;5.00;3.20;;;;;;;10.29;43.33;101685.00;3572972;39;20158;-65
2022/04/18 06:29:46;;;;;;;5.28;3.17;;;;;;;10.26;43.76;101650.22;3580112;39;20060;-66
2022/04/18 06:32:11;;;;;;;4.18;3.15;;;;;;;10.43;42.86;101662.84;3581607;39;20137;-65
2022/04/18 06:34:37;;;;;;;4.80;3.35;;;;;;;10.70;42.04;101682.16;3583528;40;20056;-65
2022/04/18 06:37:03;;;;;;;6.10;3.25;;;;;;;10.93;41.84;101689.94;3582609;40;20063;-65
2022/04/18 06:39:28;;;;;;;5.90;3.20;;;;;;;11.20;41.60;101683.28;3580171;39;20044;-64
2022/04/18 06:41:55;;;;;;;3.88;2.80;;;;;;;11.51;40.61;101664.63;3583834;40;20055;-65
2022/04/18 06:44:21;;;;;;;3.50;3.08;;;;;;;12.09;39.83;101687.59;3575489;39;20052;-64
2022/04/18 06:46:46;;;;;;;4.13;3.20;;;;;;;12.48;38.51;101657.53;3577876;39;20048;-65
2022/04/18 06:49:12;;;;;;;4.95;2.90;;;;;;;12.98;38.13;101683.44;3587243;40;20236;-65
2022/04/18 06:51:38;;;;;;;3.60;2.90;;;;;;;13.37;36.75;101676.69;3587327;39;20057;-66
2022/04/18 06:54:03;;;;;;;4.13;2.92;;;;;;;13.62;35.66;101670.66;3579008;39;20183;-65
2022/04/18 06:59:12;;;;;;;;;;;;;;;14.30;34.25;101677.25;3575251;39;20051;-66
2022/04/18 07:01:38;;;;;;;3.83;2.63;;;;;;;14.61;33.72;101679.75;3584929;40;19947;-65
2022/04/18 07:04:04;;;;;;;3.33;2.80;;;;;;;14.82;33.05;101682.03;3574311;39;20047;-66
2022/04/18 07:06:30;;;;;;;4.63;2.63;;;;;;;14.68;33.12;101623.38;3585249;40;20413;-65
2022/04/18 07:08:55;;;;;;;2.67;2.47;;;;;;;15.17;32.73;101685.09;3577218;39;20064;-66
2022/04/18 07:11:21;;;;;;;3.97;2.80;;;;;;;15.32;32.43;101665.09;3584261;40;20259;-65
2022/04/18 07:13:46;;;;;;;3.63;2.60;;;;;;;15.49;32.49;101668.47;3579381;39;20581;-67
2022/04/18 07:16:12;;;;;;;2.63;2.40;;;;;;;15.69;32.67;101664.41;3575396;40;20160;-66
2022/04/18 07:18:38;;;;;;;3.25;2.55;;;;;;;15.93;31.92;101676.25;3576878;39;20055;-66
2022/04/18 07:21:03;;;;;;;2.65;2.30;;;;;;;16.13;32.52;101682.09;3578774;40;20059;-65
2022/04/18 07:23:29;;;;;;;2.75;2.33;;;;;;;16.19;31.49;101666.25;3582663;40;20136;-65
2022/04/18 07:25:55;;;;;;;4.45;2.63;;;;;;;16.45;30.23;101667.06;3572931;39;20078;-66
2022/04/18 07:28:21;;;;;;;3.72;2.60;;;;;;;16.66;30.03;101669.19;3582479;40;20044;-65
2022/04/18 07:30:47;;;;;;;3.60;2.65;;;;;;;16.21;29.67;101572.06;3572666;39;21195;-65
2022/04/18 07:33:16;;;;;;;2.67;2.30;;;;;;;16.90;30.03;101669.22;3577468;39;20071;-66
2022/04/18 07:35:42;;;;;;;2.55;2.35;;;;;;;16.48;30.19;101577.25;3582455;39;20056;-65
2022/04/18 07:40:53;;;;;;;5.20;2.50;;;;;;;17.51;29.01;101664.56;3575601;39;20054;-67
2022/04/18 07:43:20;;;;;;;3.38;2.53;;;;;;;17.58;28.29;101651.34;3580560;40;20113;-66
2022/04/18 07:45:45;;;;;;;3.40;2.20;;;;;;;17.66;27.81;101638.00;3572706;39;20130;-66
2022/04/18 07:48:11;;;;;;;5.72;2.67;;;;;;;17.66;27.78;101621.69;3578574;39;20168;-66
2022/04/18 07:53:21;;;;;;;3.03;2.13;;;;;;;18.11;28.00;101654.41;3586804;40;20120;-65
2022/04/18 07:55:48;;;;;;;2.55;2.08;;;;;;;18.31;27.40;101650.06;3577321;39;20298;-66
2022/04/18 07:58:13;;;;;;;3.10;2.20;;;;;;;18.29;27.30;101647.47;3582943;40;20052;-66
2022/04/18 08:00:39;;;;;;;3.40;2.30;;;;;;;18.52;26.84;101658.31;3571820;39;20105;-70
2022/04/18 08:03:04;;;;;;;2.88;2.20;;;;;;;18.60;26.60;101657.72;3582649;39;20064;-66
2022/04/18 08:05:30;;;;;;;2.63;2.17;;;;;;;18.64;26.53;101656.44;3579568;39;20098;-66
2022/04/18 08:07:55;;;;;;;2.53;2.33;;;;;;;18.71;26.10;101644.94;3582087;40;20271;-67
2022/04/18 08:10:21;;;;;;;4.15;2.13;;;;;;;19.00;25.17;101658.00;3581010;39;20068;-66
2022/04/18 08:12:48;;;;;;;3.55;2.53;;;;;;;19.11;25.95;101648.91;3580514;40;20052;-66
2022/04/18 08:15:13;;;;;;;4.65;2.40;;;;;;;19.22;25.11;101644.28;3570437;39;20057;-66
2022/04/18 08:17:39;;;;;;;2.53;2.10;;;;;;;19.48;24.55;101652.09;3583643;40;20160;-66
2022/04/18 08:20:05;;;;;;;2.97;2.05;;;;;;;19.56;25.17;101644.09;3574208;39;20056;-66
2022/04/18 08:22:31;;;;;;;2.55;2.35;;;;;;;19.69;25.85;101658.44;3576782;40;20096;-66
2022/04/18 08:24:57;;;;;;;2.33;2.17;;;;;;;19.57;24.80;101644.94;3581529;40;20068;-67
2022/04/18 08:27:22;;;;;;;3.30;2.08;;;;;;;19.59;25.25;101653.88;3577643;39;20161;-66
2022/04/18 08:29:48;;;;;;;4.88;2.05;;;;;;;19.65;24.90;101667.88;3575991;39;20688;-67
2022/04/18 08:32:14;;;;;;;3.13;2.15;;;;;;;19.63;25.89;101660.78;3578124;39;20631;-66
2022/04/18 08:34:40;;;;;;;4.00;2.03;;;;;;;19.70;24.91;101653.84;3584752;40;20125;-66
2022/04/18 08:37:07;;;;;;;2.78;2.30;;;;;;;19.85;25.30;101648.88;3573001;39;20056;-66
2022/04/18 08:39:33;;;;;;;3.65;2.05;;;;;;;19.99;23.99;101656.75;3586882;40;20060;-65
2022/04/18 08:42:00;;;;;;;3.83;2.20;;;;;;;19.91;24.27;101651.09;3575319;39;20115;-66
2022/04/18 08:44:26;;;;;;;3.58;2.30;;;;;;;20.08;24.09;101647.75;3586379;39;20056;-67
2022/04/18 08:46:56;;;;;;;2.47;2.13;;;;;;;20.19;24.60;101652.22;3567801;40;20065;-67
2022/04/18 08:54:53;;;;;;;2.47;2.13;;;;;;;20.77;23.35;101654.28;3583618;40;20119;-67
2022/04/18 08:57:18;;;;;;;2.10;1.90;;;;;;;20.79;23.70;101649.56;3582212;40;20814;-66
2022/04/18 08:59:44;;;;;;;3.40;2.42;;;;;;;21.05;23.94;101661.66;3574440;39;20047;-66
2022/04/18 09:02:09;;;;;;;3.03;1.92;;;;;;;21.00;22.80;101644.84;3572306;39;20125;-67
2022/04/18 09:04:35;;;;;;;3.83;2.30;;;;;;;20.94;23.45;101650.03;3582436;39;20052;-66
2022/04/18 09:07:13;;;;;;;2.42;2.20;;;;;;;20.85;23.66;101649.00;3574674;39;20111;-66
2022/04/18 09:09:39;;;;;;;3.38;2.15;;;;;;;20.89;23.08;101649.56;3573260;40;20055;-67
2022/04/18 09:12:26;;;;;;;5.75;2.25;;;;;;;20.90;23.72;101652.19;3580107;40;20070;-66
2022/04/18 09:14:52;;;;;;;2.75;2.33;;;;;;;20.99;22.56;101655.91;3580768;39;20349;-66
2022/04/18 09:17:35;;;;;;;4.25;2.50;;;;;;;21.01;23.20;101654.78;3578273;39;20059;-66
2022/04/18 09:20:13;;;;;;;2.58;2.30;;;;;;;21.05;23.46;101649.88;3576687;40;20459;-67
2022/04/18 09:22:48;;;;;;;4.15;2.28;;;;;;;21.07;23.07;101642.41;3586336;39;20110;-65
2022/04/18 09:25:16;;;;;;;4.32;2.50;;;;;;;20.98;24.01;101646.00;3580950;40;20675;-66
2022/04/18 09:27:55;;;;;;;4.13;2.65;;;;;;;20.74;23.75;101616.31;3578122;40;20083;-67
2022/04/18 09:30:22;;;;;;;4.93;2.83;;;;;;;20.90;23.39;101624.84;3566672;40;20410;-67
2022/04/18 09:33:08;;;;;;;3.03;2.53;;;;;;;21.03;24.23;101652.78;3571045;39;22246;-65
2022/04/18 09:35:35;;;;;;;2.90;2.30;;;;;;;21.04;23.67;101638.09;3580608;40;20096;-66
2022/04/18 09:38:06;;;;;;;2.72;2.45;;;;;;;21.20;24.38;101642.13;3573406;39;20549;-67
2022/04/18 09:40:36;;;;;;;3.28;2.50;;;;;;;21.39;24.71;101639.41;3580898;40;20060;-66
2022/04/18 09:43:01;;;;;;;4.30;2.53;;;;;;;21.28;25.10;101634.03;3579728;40;20064;-66
2022/04/18 09:48:01;;;;;;;5.75;2.72;;;;;;;21.24;23.86;101624.41;3561450;40;20044;-61
2022/04/18 09:53:26;;;;;;;3.05;2.50;;;;;;;21.60;23.43;101627.41;3566258;40;20062;-61
2022/04/18 09:55:55;;;;;;;4.88;2.20;;;;;;;21.70;23.54;101629.13;3573630;40;20056;-61
2022/04/18 09:58:23;;;;;;;3.00;2.25;;;;;;;21.91;22.45;101617.94;3574654;40;20161;-62
2022/04/18 10:00:50;;;;;;;3.40;2.40;;;;;;;22.12;22.96;101619.63;3568002;40;20068;-62
2022/04/18 10:03:17;;;;;;;4.53;2.47;;;;;;;22.27;21.58;101606.34;3564182;40;20160;-62
2022/04/18 10:05:44;;;;;;;3.33;2.60;;;;;;;22.30;22.04;101631.53;3575265;40;20080;-61
2022/04/18 10:08:10;;;;;;;3.47;2.50;;;;;;;22.40;21.47;101621.38;3572213;40;20076;-62
2022/04/18 10:10:40;;;;;;;2.65;2.28;;;;;;;22.29;22.24;101598.81;3567546;40;20060;-62
2022/04/18 10:13:08;;;;;;;2.67;2.47;;;;;;;22.35;21.16;101617.38;3570805;40;20056;-62
2022/04/18 10:15:36;;;;;;;3.35;2.50;;;;;;;22.39;20.37;101608.72;3576973;40;20096;-62
2022/04/18 10:18:05;;;;;;;4.05;2.65;;;;;;;22.35;20.36;101615.50;3558659;40;20612;-62
2022/04/18 10:21:07;;;;;;;3.42;2.58;;;;;;;22.17;20.49;101609.09;3573369;40;20048;-62
2022/04/18 10:24:20;;;;;;;3.08;2.78;;;;;;;22.23;21.53;101608.47;3577106;40;20064;-62
2022/04/18 10:27:52;;;;;;;3.40;2.70;;;;;;;22.31;19.98;101605.00;3566914;40;20048;-61
2022/04/18 10:30:19;;;;;;;3.45;2.70;;;;;;;22.38;22.43;101598.75;3575238;40;20048;-61
2022/04/18 10:32:48;;;;;;;3.97;3.25;;;;;;;22.41;20.78;101584.75;3567720;40;20060;-61
2022/04/18 10:35:14;;;;;;;5.32;3.47;;;;;;;22.47;21.46;101600.56;3564986;40;20092;-61
2022/04/18 10:37:43;;;;;;;4.57;3.00;;;;;;;22.60;21.24;101582.91;3574675;40;20082;-62
2022/04/18 10:40:10;;;;;;;3.45;3.10;;;;;;;22.67;20.37;101594.97;3563375;40;20720;-62
2022/04/18 10:42:40;;;;;;;3.83;2.83;;;;;;;22.61;20.57;101590.09;3567403;40;20064;-61
2022/04/18 10:45:14;;;;;;;4.03;3.00;;;;;;;22.60;20.46;101574.69;3572699;40;20622;-61
2022/04/18 10:48:10;;;;;;;3.22;2.60;;;;;;;22.85;21.03;101593.09;3572342;40;20068;-61
2022/04/18 10:50:44;;;;;;;5.45;2.65;;;;;;;22.75;20.01;101584.09;3561233;40;20071;-61
2022/04/18 10:53:19;;;;;;;6.07;2.88;;;;;;;22.78;20.18;101586.53;3573123;40;20797;-61
2022/04/18 10:55:51;;;;;;;5.15;2.90;;;;;;;22.84;20.54;101574.94;3568748;40;20122;-61
2022/04/18 10:58:29;;;;;;;3.35;2.65;;;;;;;22.85;20.93;101573.91;3574366;40;20060;-61
2022/04/18 11:01:08;;;;;;;3.10;2.80;;;;;;;22.88;20.89;101576.34;3574609;40;20064;-61
2022/04/18 11:03:43;;;;;;;3.17;2.88;;;;;;;23.08;20.55;101570.72;3567683;40;20052;-61
2022/04/18 11:06:18;;;;;;;3.78;3.00;;;;;;;23.27;19.29;101569.66;3561363;40;20064;-61
2022/04/18 11:09:09;;;;;;;3.20;2.90;;;;;;;23.46;19.62;101557.63;3574589;40;20090;-61
2022/04/18 11:11:37;;;;;;;3.78;2.70;;;;;;;23.73;20.06;101562.97;3558693;40;20060;-61
2022/04/18 11:14:25;;;;;;;5.57;2.92;;;;;;;24.00;20.04;101556.41;3570229;40;20756;-61
2022/04/18 11:17:01;;;;;;;7.05;2.90;;;;;;;24.01;19.24;101555.41;3570778;40;20064;-60
2022/04/18 11:19:36;;;;;;;5.07;3.45;;;;;;;24.04;19.96;101557.81;3573219;40;20060;-62
2022/04/18 11:22:04;;;;;;;4.07;2.95;;;;;;;24.00;18.75;101561.03;3566120;40;20064;-62
2022/04/18 11:24:48;;;;;;;5.38;3.20;;;;;;;24.14;18.39;101549.44;3566592;40;20053;-61
2022/04/18 11:27:28;;;;;;;3.65;2.80;;;;;;;23.89;19.16;101485.31;3564857;40;20258;-62
2022/04/18 11:30:07;;;;;;;3.70;2.75;;;;;;;24.16;19.28;101541.03;3570335;40;20741;-62
2022/04/18 11:32:37;;;;;;;3.50;2.63;;;;;;;24.29;21.38;101547.78;3573649;40;20048;-61
2022/04/18 11:35:07;;;;;;;3.22;2.88;;;;;;;24.43;19.78;101542.69;3570526;40;20063;-61
2022/04/18 11:37:43;;;;;;;4.03;3.10;;;;;;;24.24;19.20;101536.41;3566068;40;20056;-61
2022/04/18 11:40:16;;;;;;;3.13;2.80;;;;;;;24.29;19.20;101545.03;3575439;40;20051;-61
2022/04/18 11:42:43;;;;;;;;;;;;;;;24.38;19.28;101547.78;3570433;40;20040;-60
2022/04/18 11:45:24;;;;;;;5.20;3.20;;;;;;;24.43;18.74;101548.19;3560509;40;20620;-62
2022/04/18 11:47:49;;;;;;;3.42;3.13;;;;;;;24.51;18.58;101548.19;3569211;40;20253;-62
2022/04/18 11:50:23;;;;;;;4.00;3.40;;;;;;;24.45;19.40;101532.38;3574744;40;20064;-61
2022/04/18 11:53:07;;;;;;;3.25;2.80;;;;;;;24.32;19.72;101539.16;3563964;40;20078;-61
2022/04/18 11:55:45;;;;;;;6.88;3.22;;;;;;;24.12;19.42;101524.00;3562939;40;20072;-61
2022/04/18 11:58:17;;;;;;;4.25;2.90;;;;;;;24.39;18.17;101539.38;3573256;40;20053;-61
2022/04/18 12:09:10;;;;;;;3.72;3.28;;;;;;;24.33;18.08;101531.81;3565189;40;20055;-61